Time;durP1;ratioP1;P1;durP2;ratioP2;P2;SDS_P1;SDS_P2;PMS_P1;PMS_P2;Temp;Humidity;BMP_temperature;BMP_pressure;BME280_temperature;BME280_humidity;BME280_pressure;Samples;Min_cycle;Max_cycle;Signal;HPM_P1;HPM_P2
2023/08/27 00:01:54;;;;;;;;;;;16.40;99.90;;;;;;5097066;28;19914;-70
2023/08/27 00:04:20;;;;;;;;;;;16.40;99.90;;;;;;5098427;28;19919;-69
2023/08/27 00:06:45;;;;;;;;;;;16.40;99.90;;;;;;5098727;28;19915;-70
2023/08/27 00:09:11;;;;;;;;;;;16.40;99.90;;;;;;5097977;28;19927;-69
2023/08/27 00:11:36;;;;;;;;;;;16.40;99.90;;;;;;5098254;28;19923;-70
2023/08/27 00:14:03;;;;;;;;;;;16.40;99.90;;;;;;5096919;28;20364;-69
2023/08/27 00:16:28;;;;;;;;;;;16.40;99.90;;;;;;5098382;28;19907;-69
2023/08/27 00:18:54;;;;;;;;;;;16.40;99.90;;;;;;5098009;28;19941;-69
2023/08/27 00:21:19;;;;;;;;;;;16.40;99.90;;;;;;5097730;28;19904;-69
2023/08/27 00:23:45;;;;;;;;;;;16.40;99.90;;;;;;5097797;28;19904;-68
2023/08/27 00:26:11;;;;;;;;;;;16.30;99.90;;;;;;5098090;28;19924;-68
2023/08/27 00:28:37;;;;;;;;;;;16.20;99.90;;;;;;5097685;28;19961;-68
2023/08/27 00:31:03;;;;;;;;;;;16.10;99.90;;;;;;5097667;28;19908;-68
2023/08/27 00:33:29;;;;;;;;;;;16.10;99.90;;;;;;5097958;28;19911;-68
2023/08/27 00:35:54;;;;;;;;;;;16.00;99.90;;;;;;5096948;28;19905;-70
2023/08/27 00:38:20;;;;;;;;;;;15.90;99.90;;;;;;5097933;28;19908;-68
2023/08/27 00:40:45;;;;;;;;;;;15.90;99.90;;;;;;5097522;28;19947;-68
2023/08/27 00:43:11;;;;;;;;;;;15.80;99.90;;;;;;5097326;28;19916;-68
2023/08/27 00:45:36;;;;;;;;;;;15.80;99.90;;;;;;5097439;28;19908;-69
2023/08/27 00:48:02;;;;;;;;;;;15.80;99.90;;;;;;5097621;28;19915;-69
2023/08/27 00:50:30;;;;;;;;;;;15.70;99.90;;;;;;5097430;28;19907;-69
2023/08/27 00:52:56;;;;;;;;;;;15.70;99.90;;;;;;5096228;28;20376;-69
2023/08/27 00:55:22;;;;;;;;;;;15.70;99.90;;;;;;5097374;28;19907;-69
2023/08/27 00:57:48;;;;;;;;;;;15.60;99.90;;;;;;5097317;28;20760;-70
2023/08/27 01:00:14;;;;;;;;;;;15.60;99.90;;;;;;5097184;28;19908;-69
2023/08/27 01:02:42;;;;;;;;;;;15.60;99.90;;;;;;5097369;28;19911;-70
2023/08/27 01:05:08;;;;;;;;;;;15.60;99.90;;;;;;5097171;28;19908;-70
2023/08/27 01:07:40;;;;;;;;;;;15.50;99.90;;;;;;5095925;28;20387;-70
2023/08/27 01:10:17;;;;;;;;;;;15.60;99.90;;;;;;5095720;28;19965;-69
2023/08/27 01:13:07;;;;;;;;;;;15.50;99.90;;;;;;5095376;28;19908;-70
2023/08/27 01:15:32;;;;;;;;;;;15.50;99.90;;;;;;5076458;28;19947;-70
2023/08/27 01:17:59;;;;;;;;;;;15.50;99.90;;;;;;5097101;28;20445;-71
2023/08/27 01:20:25;;;;;;;;;;;15.50;99.90;;;;;;5093552;28;19908;-70
2023/08/27 01:22:51;;;;;;;;;;;15.60;99.90;;;;;;5090778;28;19969;-71
2023/08/27 01:25:18;;;;;;;;;;;15.60;99.90;;;;;;5096980;28;19941;-71
2023/08/27 01:27:48;;;;;;;;;;;15.50;99.90;;;;;;5096481;28;19912;-70
2023/08/27 01:30:32;;;;;;;;;;;15.60;99.90;;;;;;5096811;28;19912;-71
2023/08/27 01:33:05;;;;;;;;;;;15.50;99.90;;;;;;5096681;28;20402;-70
2023/08/27 01:35:31;;;;;;;;;;;15.50;99.90;;;;;;5088878;28;19959;-70
2023/08/27 01:37:57;;;;;;;;;;;15.50;99.90;;;;;;5095315;28;19911;-70
2023/08/27 01:40:25;;;;;;;;;;;15.50;99.90;;;;;;5096395;28;19908;-70
2023/08/27 01:42:50;;;;;;;;;;;15.50;99.90;;;;;;5094201;28;19911;-68
2023/08/27 01:45:17;;;;;;;;;;;15.40;99.90;;;;;;5096707;28;20379;-67
2023/08/27 01:47:43;;;;;;;;;;;15.30;99.90;;;;;;5096283;28;19904;-68
2023/08/27 01:50:08;;;;;;;;;;;15.20;99.90;;;;;;5096605;28;20314;-68
2023/08/27 01:52:35;;;;;;;;;;;15.20;99.90;;;;;;5096116;28;19951;-69
2023/08/27 01:55:01;;;;;;;;;;;15.10;99.90;;;;;;5095263;28;19915;-68
2023/08/27 01:57:27;;;;;;;;;;;15.10;99.90;;;;;;5095801;28;20380;-68
2023/08/27 01:59:52;;;;;;;;;;;15.00;99.90;;;;;;5096439;28;19908;-67
2023/08/27 02:02:18;;;;;;;;;;;15.00;99.90;;;;;;5096171;28;19939;-68
2023/08/27 02:04:43;;;;;;;;;;;15.00;99.90;;;;;;5096269;28;19908;-67
2023/08/27 02:07:09;;;;;;;;;;;15.00;99.90;;;;;;5095050;28;20391;-69
2023/08/27 02:09:35;;;;;;;;;;;14.90;99.90;;;;;;5096201;28;19908;-68
2023/08/27 02:12:00;;;;;;;;;;;14.80;99.90;;;;;;5095831;28;19911;-68
2023/08/27 02:14:26;;;;;;;;;;;14.70;99.90;;;;;;5094001;28;19911;-68
2023/08/27 02:16:51;;;;;;;;;;;14.80;99.90;;;;;;5096210;28;19911;-68
2023/08/27 02:19:17;;;;;;;;;;;14.70;99.90;;;;;;5095850;28;19911;-68
2023/08/27 02:21:43;;;;;;;;;;;14.60;99.90;;;;;;5094596;28;19904;-68
2023/08/27 02:24:08;;;;;;;;;;;14.60;99.90;;;;;;5093755;28;19943;-68
2023/08/27 02:26:34;;;;;;;;;;;14.60;99.90;;;;;;5082864;28;19920;-69
2023/08/27 02:28:59;;;;;;;;;;;14.60;99.90;;;;;;5095683;28;19904;-69
2023/08/27 02:31:25;;;;;;;;;;;14.60;99.90;;;;;;5095893;28;19912;-69
2023/08/27 02:33:50;;;;;;;;;;;14.60;99.90;;;;;;5095751;28;19970;-69
2023/08/27 02:36:16;;;;;;;;;;;14.60;99.90;;;;;;5095832;28;20009;-69
2023/08/27 02:38:41;;;;;;;;;;;14.70;99.90;;;;;;5094664;28;19926;-69
2023/08/27 02:41:07;;;;;;;;;;;14.70;99.90;;;;;;5095644;28;19908;-69
2023/08/27 02:43:32;;;;;;;;;;;14.70;99.90;;;;;;5095760;28;19904;-69
2023/08/27 02:45:59;;;;;;;;;;;14.70;99.90;;;;;;5095808;28;19908;-69
2023/08/27 02:48:24;;;;;;;;;;;14.70;99.90;;;;;;5093351;28;20330;-68
2023/08/27 02:50:50;;;;;;;;;;;14.70;99.90;;;;;;5095649;28;19931;-69
2023/08/27 02:53:16;;;;;;;;;;;14.80;99.90;;;;;;5096811;28;19912;-68
2023/08/27 02:55:41;;;;;;;;;;;14.70;99.90;;;;;;5099810;28;19904;-68
2023/08/27 02:58:07;;;;;;;;;;;14.70;99.90;;;;;;5099578;28;20375;-68
2023/08/27 03:00:32;;;;;;;;;;;14.70;99.90;;;;;;5099688;28;19926;-68
2023/08/27 03:02:58;;;;;;;;;;;14.70;99.90;;;;;;5099328;28;19911;-68
2023/08/27 03:05:23;;;;;;;;;;;14.70;99.90;;;;;;5099219;28;19911;-67
2023/08/27 03:07:49;;;;;;;;;;;14.70;99.90;;;;;;5097839;28;19911;-68
2023/08/27 03:10:15;;;;;;;;;;;14.60;99.90;;;;;;5099246;28;20387;-68
2023/08/27 03:12:40;;;;;;;;;;;14.60;99.90;;;;;;5098990;28;20405;-68
2023/08/27 03:15:06;;;;;;;;;;;14.60;99.90;;;;;;5087650;28;19916;-67
2023/08/27 03:17:32;;;;;;;;;;;14.60;99.90;;;;;;5098191;28;19912;-68
2023/08/27 03:19:57;;;;;;;;;;;14.60;99.90;;;;;;5099602;28;19949;-68
2023/08/27 03:22:23;;;;;;;;;;;14.60;99.90;;;;;;5099270;28;19904;-68
2023/08/27 03:24:48;;;;;;;;;;;14.60;99.90;;;;;;5097941;28;20289;-68
2023/08/27 03:27:14;;;;;;;;;;;14.60;99.90;;;;;;5097344;28;20395;-68
2023/08/27 03:29:40;;;;;;;;;;;14.60;99.90;;;;;;5099236;28;20338;-68
2023/08/27 03:32:05;;;;;;;;;;;14.50;99.90;;;;;;5097410;28;19908;-68
2023/08/27 03:34:31;;;;;;;;;;;14.50;99.90;;;;;;5097884;28;19948;-68
2023/08/27 03:36:57;;;;;;;;;;;14.40;99.90;;;;;;5098784;28;19972;-69
2023/08/27 03:39:22;;;;;;;;;;;14.40;99.90;;;;;;5098990;28;19908;-69
2023/08/27 03:41:48;;;;;;;;;;;14.40;99.90;;;;;;5098628;28;19904;-68
2023/08/27 03:44:13;;;;;;;;;;;14.40;99.90;;;;;;5099047;28;19904;-68
2023/08/27 03:46:39;;;;;;;;;;;14.30;99.90;;;;;;5098538;28;19904;-68
2023/08/27 03:49:05;;;;;;;;;;;14.30;99.90;;;;;;5099018;28;19904;-68
2023/08/27 03:51:30;;;;;;;;;;;14.30;99.90;;;;;;5098548;28;19912;-68
2023/08/27 03:53:57;;;;;;;;;;;14.30;99.90;;;;;;5098724;28;19908;-68
2023/08/27 03:56:23;;;;;;;;;;;14.30;99.90;;;;;;5098167;28;19957;-68
2023/08/27 03:58:48;;;;;;;;;;;14.30;99.90;;;;;;5098494;28;20007;-68
2023/08/27 04:01:14;;;;;;;;;;;14.30;99.90;;;;;;5098371;28;19904;-69
2023/08/27 04:03:39;;;;;;;;;;;14.30;99.90;;;;;;5097337;28;19904;-68
2023/08/27 04:06:06;;;;;;;;;;;14.30;99.90;;;;;;5096448;28;19904;-69
2023/08/27 04:08:31;;;;;;;;;;;14.30;99.90;;;;;;5097168;28;19908;-70
2023/08/27 04:10:57;;;;;;;;;;;14.30;99.90;;;;;;5096886;28;20429;-70
2023/08/27 04:13:23;;;;;;;;;;;14.30;99.90;;;;;;5087577;28;20301;-69
2023/08/27 04:15:58;;;;;;;;;;;14.30;99.90;;;;;;5097954;28;20295;-69
2023/08/27 04:18:23;;;;;;;;;;;14.20;99.90;;;;;;5097473;28;19915;-69
2023/08/27 04:20:49;;;;;;;;;;;14.20;99.90;;;;;;5086669;28;19904;-69
2023/08/27 04:23:14;;;;;;;;;;;14.30;99.90;;;;;;5098311;28;19904;-69
2023/08/27 04:25:43;;;;;;;;;;;14.20;99.90;;;;;;5097839;28;20008;-69
2023/08/27 04:28:08;;;;;;;;;;;14.30;99.90;;;;;;5097941;28;19904;-69
2023/08/27 04:30:34;;;;;;;;;;;14.20;99.90;;;;;;5097688;28;19961;-70
2023/08/27 04:32:59;;;;;;;;;;;14.20;99.90;;;;;;5098233;28;19910;-70
2023/08/27 04:35:25;;;;;;;;;;;14.20;99.90;;;;;;5097864;28;19904;-70
2023/08/27 04:37:50;;;;;;;;;;;14.20;99.90;;;;;;5098069;28;20337;-70
2023/08/27 04:40:16;;;;;;;;;;;14.20;99.90;;;;;;5086282;28;19905;-70
2023/08/27 04:42:41;;;;;;;;;;;14.20;99.90;;;;;;5094499;28;20279;-69
2023/08/27 04:45:08;;;;;;;;;;;14.20;99.90;;;;;;5097901;28;20252;-71
2023/08/27 04:47:34;;;;;;;;;;;14.20;99.90;;;;;;5097522;28;19904;-71
2023/08/27 04:49:59;;;;;;;;;;;14.10;99.90;;;;;;5097717;28;19956;-69
2023/08/27 04:52:25;;;;;;;;;;;14.10;99.90;;;;;;5096126;28;19906;-70
2023/08/27 04:54:50;;;;;;;;;;;14.10;99.90;;;;;;5097542;28;19918;-70
2023/08/27 04:57:16;;;;;;;;;;;14.10;99.90;;;;;;5095808;28;20367;-72
2023/08/27 04:59:41;;;;;;;;;;;14.10;99.90;;;;;;5089720;28;19951;-72
2023/08/27 05:02:07;;;;;;;;;;;14.10;99.90;;;;;;5097513;28;20367;-72
2023/08/27 05:04:32;;;;;;;;;;;14.10;99.90;;;;;;5095988;28;19904;-72
2023/08/27 05:06:58;;;;;;;;;;;14.20;99.90;;;;;;5097422;28;19939;-72
2023/08/27 05:09:25;;;;;;;;;;;14.20;99.90;;;;;;5095813;28;19999;-72
2023/08/27 05:11:50;;;;;;;;;;;14.20;99.90;;;;;;5096731;28;20308;-73
2023/08/27 05:14:16;;;;;;;;;;;14.20;99.90;;;;;;5097399;28;19904;-73
2023/08/27 05:16:41;;;;;;;;;;;14.20;99.90;;;;;;5096279;28;19984;-73
2023/08/27 05:19:07;;;;;;;;;;;14.20;99.90;;;;;;5097068;28;19992;-74
2023/08/27 05:21:32;;;;;;;;;;;14.20;99.90;;;;;;5088132;28;19994;-73
2023/08/27 05:23:58;;;;;;;;;;;14.20;99.90;;;;;;5097158;28;19904;-73
2023/08/27 05:26:23;;;;;;;;;;;14.20;99.90;;;;;;5095591;28;19916;-71
2023/08/27 05:28:49;;;;;;;;;;;14.20;99.90;;;;;;5096796;28;19978;-72
2023/08/27 05:31:14;;;;;;;;;;;14.30;99.90;;;;;;5095343;28;19934;-73
2023/08/27 05:33:40;;;;;;;;;;;14.30;99.90;;;;;;5096353;28;20325;-73
2023/08/27 05:36:06;;;;;;;;;;;14.20;99.90;;;;;;5095542;28;19958;-71
2023/08/27 05:38:31;;;;;;;;;;;14.20;99.90;;;;;;5095298;28;19939;-71
2023/08/27 05:40:58;;;;;;;;;;;14.20;99.90;;;;;;5096377;28;19991;-74
2023/08/27 05:43:24;;;;;;;;;;;14.20;99.90;;;;;;5096617;28;19911;-73
2023/08/27 05:45:49;;;;;;;;;;;14.20;99.90;;;;;;5096592;28;19908;-73
2023/08/27 05:48:15;;;;;;;;;;;14.20;99.90;;;;;;5083020;28;19907;-73
2023/08/27 05:50:41;;;;;;;;;;;14.20;99.90;;;;;;5095031;28;19969;-73
2023/08/27 05:53:06;;;;;;;;;;;14.20;99.90;;;;;;5096515;28;19914;-74
2023/08/27 05:55:32;;;;;;;;;;;14.30;99.90;;;;;;5096528;28;19910;-73
2023/08/27 05:57:59;;;;;;;;;;;14.30;99.90;;;;;;5096070;28;19955;-74
2023/08/27 06:00:25;;;;;;;;;;;14.30;99.90;;;;;;5095136;28;19911;-73
2023/08/27 06:02:50;;;;;;;;;;;14.30;99.90;;;;;;5094722;28;19999;-72
2023/08/27 06:05:16;;;;;;;;;;;14.30;99.90;;;;;;5096164;28;19995;-75
2023/08/27 06:07:41;;;;;;;;;;;14.30;99.90;;;;;;5096149;28;19912;-74
2023/08/27 06:10:08;;;;;;;;;;;14.40;99.90;;;;;;5095938;28;19912;-74
2023/08/27 06:12:33;;;;;;;;;;;14.40;99.90;;;;;;5095897;28;19908;-75
2023/08/27 06:14:59;;;;;;;;;;;14.40;99.90;;;;;;5096061;28;19953;-75
2023/08/27 06:17:24;;;;;;;;;;;14.40;99.90;;;;;;5096128;28;19950;-74
2023/08/27 06:19:50;;;;;;;;;;;14.50;99.90;;;;;;5096034;28;19908;-74
2023/08/27 06:22:16;;;;;;;;;;;14.50;99.90;;;;;;5088142;28;19957;-75
2023/08/27 06:24:42;;;;;;;;;;;14.50;99.90;;;;;;5095901;28;19907;-76
2023/08/27 06:27:07;;;;;;;;;;;14.60;99.90;;;;;;5095565;28;19944;-74
2023/08/27 06:29:33;;;;;;;;;;;14.60;99.90;;;;;;5094219;28;19904;-75
2023/08/27 06:31:59;;;;;;;;;;;14.70;99.90;;;;;;5094561;28;19919;-74
2023/08/27 06:34:24;;;;;;;;;;;14.70;99.90;;;;;;5094955;28;19904;-74
2023/08/27 06:36:50;;;;;;;;;;;14.70;99.90;;;;;;5095888;28;19915;-74
2023/08/27 06:39:15;;;;;;;;;;;14.70;99.90;;;;;;5091962;28;19911;-73
2023/08/27 06:41:41;;;;;;;;;;;14.70;99.90;;;;;;5095698;28;19908;-74
2023/08/27 06:44:06;;;;;;;;;;;14.70;99.90;;;;;;5096035;28;20315;-72
2023/08/27 06:46:32;;;;;;;;;;;14.70;99.90;;;;;;5095581;28;19950;-72
2023/08/27 06:48:58;;;;;;;;;;;14.70;99.90;;;;;;5095893;28;19908;-73
2023/08/27 06:51:24;;;;;;;;;;;14.70;99.90;;;;;;5095782;28;19939;-73
2023/08/27 06:53:49;;;;;;;;;;;14.70;99.90;;;;;;5095511;28;20386;-73
2023/08/27 06:56:15;;;;;;;;;;;14.70;99.90;;;;;;5095806;28;19911;-72
2023/08/27 06:58:40;;;;;;;;;;;14.70;99.90;;;;;;5095437;28;19908;-73
2023/08/27 07:01:06;;;;;;;;;;;14.70;99.90;;;;;;5095552;28;20045;-73
2023/08/27 07:03:32;;;;;;;;;;;14.70;99.90;;;;;;5092194;28;19990;-72
2023/08/27 07:05:57;;;;;;;;;;;14.80;99.90;;;;;;5095680;28;20367;-72
2023/08/27 07:08:23;;;;;;;;;;;14.90;99.90;;;;;;5088782;28;20437;-73
2023/08/27 07:10:48;;;;;;;;;;;15.00;99.90;;;;;;5084552;28;19916;-73
2023/08/27 07:13:14;;;;;;;;;;;15.00;99.90;;;;;;5095264;28;19908;-73
2023/08/27 07:15:40;;;;;;;;;;;15.00;99.90;;;;;;5078986;28;19904;-73
2023/08/27 07:18:05;;;;;;;;;;;15.10;99.90;;;;;;5088875;28;19998;-72
2023/08/27 07:20:31;;;;;;;;;;;15.10;99.90;;;;;;5090551;28;21282;-72
2023/08/27 07:22:56;;;;;;;;;;;15.20;99.90;;;;;;5093815;28;19908;-74
2023/08/27 07:25:23;;;;;;;;;;;15.10;99.90;;;;;;5091364;28;19920;-74
2023/08/27 07:27:48;;;;;;;;;;;15.20;99.90;;;;;;5093638;28;20434;-73
2023/08/27 07:30:14;;;;;;;;;;;15.30;99.90;;;;;;5093855;28;20005;-74
2023/08/27 07:32:39;;;;;;;;;;;15.30;99.90;;;;;;5090801;28;20288;-75
2023/08/27 07:35:05;;;;;;;;;;;15.30;99.90;;;;;;5094013;28;19904;-73
2023/08/27 07:37:31;;;;;;;;;;;15.40;99.90;;;;;;5094084;28;19931;-72
2023/08/27 07:39:57;;;;;;;;;;;15.40;99.90;;;;;;5087505;28;19904;-73
2023/08/27 07:42:22;;;;;;;;;;;15.40;99.90;;;;;;5096046;28;20292;-73
2023/08/27 07:44:48;;;;;;;;;;;15.40;99.90;;;;;;5095836;28;19912;-73
2023/08/27 07:47:14;;;;;;;;;;;15.40;99.90;;;;;;5095071;28;19934;-74
2023/08/27 07:49:40;;;;;;;;;;;15.40;99.90;;;;;;5094769;28;19908;-73
2023/08/27 07:52:05;;;;;;;;;;;15.40;99.90;;;;;;5096573;28;19991;-74
2023/08/27 07:54:31;;;;;;;;;;;15.40;99.90;;;;;;5095935;28;20294;-74
2023/08/27 07:56:56;;;;;;;;;;;15.40;99.90;;;;;;5094637;28;20257;-74
2023/08/27 07:59:22;;;;;;;;;;;15.40;99.90;;;;;;5093703;28;20489;-74
2023/08/27 08:01:47;;;;;;;;;;;15.50;99.90;;;;;;5094871;28;20324;-73
2023/08/27 08:04:13;;;;;;;;;;;15.50;99.90;;;;;;5093480;28;19907;-75
2023/08/27 08:06:38;;;;;;;;;;;15.60;99.90;;;;;;5089829;28;19908;-75
2023/08/27 08:09:04;;;;;;;;;;;15.60;99.90;;;;;;5094416;28;19919;-73
2023/08/27 08:11:29;;;;;;;;;;;15.70;99.90;;;;;;5091344;28;19912;-74
2023/08/27 08:13:55;;;;;;;;;;;15.80;99.90;;;;;;5092238;28;19908;-74
2023/08/27 08:16:23;;;;;;;;;;;15.90;99.90;;;;;;5093681;28;19922;-75
2023/08/27 08:18:48;;;;;;;;;;;16.10;99.90;;;;;;5093836;28;20472;-75
2023/08/27 08:21:14;;;;;;;;;;;16.20;99.90;;;;;;5093042;28;19947;-74
2023/08/27 08:23:40;;;;;;;;;;;16.20;99.90;;;;;;5094778;28;19915;-75
2023/08/27 08:26:06;;;;;;;;;;;16.10;99.90;;;;;;5092074;28;19927;-77
2023/08/27 08:28:32;;;;;;;;;;;16.20;99.90;;;;;;5092989;28;19908;-81
2023/08/27 08:30:57;;;;;;;;;;;16.20;99.90;;;;;;5096707;28;19960;-75
2023/08/27 08:33:23;;;;;;;;;;;16.20;99.90;;;;;;5090938;28;19904;-75
2023/08/27 08:35:48;;;;;;;;;;;16.20;99.90;;;;;;5089424;28;19908;-79
2023/08/27 08:38:14;;;;;;;;;;;16.30;99.90;;;;;;5094151;28;19914;-79
2023/08/27 08:40:46;;;;;;;;;;;16.40;99.90;;;;;;5091653;28;19955;-79
2023/08/27 08:43:25;;;;;;;;;;;16.50;99.90;;;;;;5091927;28;20016;-76
2023/08/27 08:46:04;;;;;;;;;;;16.50;99.90;;;;;;5094532;28;20387;-78
2023/08/27 08:48:30;;;;;;;;;;;16.50;99.90;;;;;;5086059;28;19968;-76
2023/08/27 08:50:56;;;;;;;;;;;16.60;99.90;;;;;;5092341;28;19912;-78
2023/08/27 08:53:23;;;;;;;;;;;16.60;99.90;;;;;;5095236;28;20006;-77
2023/08/27 08:55:50;;;;;;;;;;;16.60;99.90;;;;;;5094037;28;19904;-76
2023/08/27 08:58:17;;;;;;;;;;;16.60;99.90;;;;;;5095092;28;19939;-77
2023/08/27 09:00:42;;;;;;;;;;;16.60;99.90;;;;;;5091622;28;20007;-77
2023/08/27 09:03:09;;;;;;;;;;;16.60;99.90;;;;;;5096570;28;19904;-77
2023/08/27 09:05:36;;;;;;;;;;;16.70;99.90;;;;;;5094692;28;20326;-77
2023/08/27 09:08:03;;;;;;;;;;;16.70;99.90;;;;;;5092573;28;19933;-79
2023/08/27 09:10:29;;;;;;;;;;;16.60;99.90;;;;;;5093916;28;19995;-79
2023/08/27 09:12:58;;;;;;;;;;;16.70;99.90;;;;;;5092146;28;19994;-80
2023/08/27 09:15:24;;;;;;;;;;;16.80;99.90;;;;;;5092443;28;19946;-76
2023/08/27 09:17:49;;;;;;;;;;;16.80;99.90;;;;;;5095184;28;19908;-77
2023/08/27 09:20:15;;;;;;;;;;;16.90;99.90;;;;;;5092030;28;19904;-78
2023/08/27 09:22:41;;;;;;;;;;;16.90;99.90;;;;;;5091748;28;19912;-77
2023/08/27 09:25:09;;;;;;;;;;;17.00;99.90;;;;;;5092577;28;20383;-77
2023/08/27 09:27:34;;;;;;;;;;;17.10;99.90;;;;;;5093091;28;19904;-77
2023/08/27 09:30:01;;;;;;;;;;;17.20;99.90;;;;;;5092430;28;20433;-78
2023/08/27 09:32:27;;;;;;;;;;;17.40;99.90;;;;;;5094134;28;19951;-79
2023/08/27 09:34:57;;;;;;;;;;;17.40;99.90;;;;;;5091901;28;19919;-77
2023/08/27 09:37:22;;;;;;;;;;;17.50;99.90;;;;;;5092555;28;19943;-75
2023/08/27 09:39:48;;;;;;;;;;;17.50;99.90;;;;;;5094682;28;19915;-76
2023/08/27 09:42:14;;;;;;;;;;;17.60;99.90;;;;;;5092325;28;19904;-76
2023/08/27 09:44:47;;;;;;;;;;;17.60;99.90;;;;;;5091331;28;19912;-77
2023/08/27 09:47:12;;;;;;;;;;;17.70;99.90;;;;;;5095406;28;19911;-77
2023/08/27 09:49:39;;;;;;;;;;;17.80;99.90;;;;;;5092225;28;19909;-77
2023/08/27 09:52:05;;;;;;;;;;;17.70;99.90;;;;;;5093893;28;19911;-77
2023/08/27 09:54:31;;;;;;;;;;;17.80;99.90;;;;;;5094610;28;19915;-78
2023/08/27 09:56:59;;;;;;;;;;;17.80;99.90;;;;;;5094478;28;19915;-81
2023/08/27 09:59:26;;;;;;;;;;;17.80;99.90;;;;;;5094012;28;19951;-79
2023/08/27 10:01:52;;;;;;;;;;;17.80;99.90;;;;;;5092074;28;19912;-81
2023/08/27 10:04:18;;;;;;;;;;;17.90;99.90;;;;;;5090199;28;19915;-79
2023/08/27 10:06:44;;;;;;;;;;;17.90;99.90;;;;;;5093615;28;20069;-75
2023/08/27 10:09:10;;;;;;;;;;;17.90;99.90;;;;;;5088570;28;19950;-78
2023/08/27 10:11:36;;;;;;;;;;;17.90;99.90;;;;;;5091996;28;19908;-77
2023/08/27 10:14:04;;;;;;;;;;;18.00;99.90;;;;;;5091448;28;19912;-78
2023/08/27 10:16:30;;;;;;;;;;;18.10;99.90;;;;;;5090619;28;19969;-81
2023/08/27 10:18:57;;;;;;;;;;;18.10;99.90;;;;;;5094851;28;19908;-75
2023/08/27 10:21:22;;;;;;;;;;;18.10;99.90;;;;;;5091851;28;19936;-78
2023/08/27 10:23:48;;;;;;;;;;;18.10;99.90;;;;;;5091833;28;19916;-82
2023/08/27 10:26:14;;;;;;;;;;;18.30;99.90;;;;;;5093914;28;19970;-78
2023/08/27 10:28:40;;;;;;;;;;;18.40;99.90;;;;;;5091790;28;19908;-78
2023/08/27 10:31:06;;;;;;;;;;;18.60;99.90;;;;;;5092655;28;19915;-77
2023/08/27 10:33:31;;;;;;;;;;;18.60;99.90;;;;;;5091872;28;19987;-81
2023/08/27 10:36:03;;;;;;;;;;;18.60;99.90;;;;;;5093823;28;20291;-79
2023/08/27 10:38:30;;;;;;;;;;;18.40;99.90;;;;;;5095391;28;19908;-79
2023/08/27 10:40:56;;;;;;;;;;;18.40;99.90;;;;;;5095856;28;19904;-79
2023/08/27 10:43:22;;;;;;;;;;;18.50;99.90;;;;;;5095735;28;19953;-78
2023/08/27 10:45:48;;;;;;;;;;;18.50;99.90;;;;;;5095890;28;19955;-79
2023/08/27 10:48:20;;;;;;;;;;;18.50;99.90;;;;;;5096000;28;19908;-81
2023/08/27 10:50:49;;;;;;;;;;;18.50;99.90;;;;;;5095808;28;19965;-79
2023/08/27 10:53:15;;;;;;;;;;;18.40;99.90;;;;;;5094292;28;19999;-77
2023/08/27 10:55:43;;;;;;;;;;;18.20;99.90;;;;;;5082274;28;19935;-78
2023/08/27 10:58:16;;;;;;;;;;;18.20;99.90;;;;;;5095672;28;19908;-78
2023/08/27 11:00:57;;;;;;;;;;;18.10;99.90;;;;;;5095760;28;19953;-78
2023/08/27 11:03:22;;;;;;;;;;;18.20;99.90;;;;;;5094229;28;19939;-78
2023/08/27 11:06:07;;;;;;;;;;;18.30;99.90;;;;;;5095684;28;19904;-77
2023/08/27 11:08:34;;;;;;;;;;;18.40;99.90;;;;;;5095426;28;19926;-77
2023/08/27 11:11:09;;;;;;;;;;;18.50;99.90;;;;;;5093889;28;19912;-77
2023/08/27 11:13:36;;;;;;;;;;;18.50;99.90;;;;;;5095644;28;19908;-81
2023/08/27 11:16:08;;;;;;;;;;;18.40;99.90;;;;;;5097963;28;19949;-79
2023/08/27 11:19:03;;;;;;;;;;;18.40;99.90;;;;;;5099465;28;19904;-79
2023/08/27 11:21:29;;;;;;;;;;;18.40;99.90;;;;;;5090351;28;19935;-78
2023/08/27 11:24:11;;;;;;;;;;;18.50;99.90;;;;;;5099205;28;19908;-77
2023/08/27 11:26:38;;;;;;;;;;;18.60;99.90;;;;;;5085916;28;19916;-77
2023/08/27 11:29:04;;;;;;;;;;;18.60;99.90;;;;;;5099191;28;19904;-77
2023/08/27 11:31:31;;;;;;;;;;;18.50;99.90;;;;;;5098000;28;19939;-78
2023/08/27 11:33:57;;;;;;;;;;;18.60;99.90;;;;;;5099417;28;19908;-77
2023/08/27 11:36:22;;;;;;;;;;;18.70;99.90;;;;;;5099125;28;19904;-76
2023/08/27 11:38:48;;;;;;;;;;;18.90;99.90;;;;;;5099007;28;19904;-77
2023/08/27 11:41:13;;;;;;;;;;;19.00;99.90;;;;;;5099000;28;19904;-77
2023/08/27 11:43:39;;;;;;;;;;;19.10;99.90;;;;;;5098739;28;19911;-76
2023/08/27 11:46:04;;;;;;;;;;;19.10;99.90;;;;;;5099140;28;19904;-79
2023/08/27 11:48:30;;;;;;;;;;;19.20;99.90;;;;;;5098945;28;19951;-78
2023/08/27 11:50:56;;;;;;;;;;;19.30;99.90;;;;;;5098948;28;19923;-76
2023/08/27 11:53:24;;;;;;;;;;;19.30;99.90;;;;;;5097314;28;19911;-77
2023/08/27 11:55:50;;;;;;;;;;;19.40;99.90;;;;;;5097118;28;20380;-77
2023/08/27 11:58:15;;;;;;;;;;;19.50;99.90;;;;;;5097651;28;20006;-77
2023/08/27 12:00:42;;;;;;;;;;;19.50;99.90;;;;;;5098813;28;20377;-76
2023/08/27 12:03:08;;;;;;;;;;;19.50;99.90;;;;;;5092873;28;19908;-77
2023/08/27 12:05:33;;;;;;;;;;;19.50;99.90;;;;;;5099242;28;19911;-79
2023/08/27 12:08:04;;;;;;;;;;;19.60;99.90;;;;;;5099956;28;20117;-83
2023/08/27 12:10:32;;;;;;;;;;;19.70;99.90;;;;;;5085201;28;19915;-81
2023/08/27 12:12:59;;;;;;;;;;;19.80;99.90;;;;;;5098435;28;19907;-78
2023/08/27 12:15:29;;;;;;;;;;;19.80;99.90;;;;;;5095502;28;19904;-79
2023/08/27 12:17:54;;;;;;;;;;;19.80;99.90;;;;;;5098513;28;19911;-80
2023/08/27 12:20:31;;;;;;;;;;;19.80;99.90;;;;;;5095612;28;19904;-80
2023/08/27 12:23:08;;;;;;;;;;;19.80;99.90;;;;;;5084944;28;19908;-77
2023/08/27 12:25:50;;;;;;;;;;;19.90;99.90;;;;;;5095782;28;19920;-77
2023/08/27 12:28:16;;;;;;;;;;;20.00;99.90;;;;;;5098107;28;20738;-80
2023/08/27 12:31:00;;;;;;;;;;;20.00;99.90;;;;;;5097682;28;19957;-80
2023/08/27 12:33:39;;;;;;;;;;;20.00;99.90;;;;;;5098325;28;19911;-76
2023/08/27 12:36:05;;;;;;;;;;;20.00;99.90;;;;;;5097751;28;19910;-79
2023/08/27 12:38:31;;;;;;;;;;;19.90;99.90;;;;;;5095466;28;19930;-77
2023/08/27 12:40:56;;;;;;;;;;;20.00;99.90;;;;;;5097829;28;19908;-78
2023/08/27 12:43:22;;;;;;;;;;;20.10;99.90;;;;;;5097853;28;19931;-79
2023/08/27 12:45:48;;;;;;;;;;;20.00;99.90;;;;;;5096405;28;19908;-76
2023/08/27 12:48:13;;;;;;;;;;;20.20;99.90;;;;;;5097875;28;19908;-76
2023/08/27 12:50:39;;;;;;;;;;;20.20;99.90;;;;;;5096425;28;20065;-79
2023/08/27 12:53:05;;;;;;;;;;;20.20;99.90;;;;;;5097776;28;20034;-79
2023/08/27 12:55:31;;;;;;;;;;;20.20;99.90;;;;;;5097288;28;19931;-78
2023/08/27 12:57:56;;;;;;;;;;;20.30;99.90;;;;;;5081076;28;19913;-78
2023/08/27 13:00:22;;;;;;;;;;;20.40;99.90;;;;;;5091487;28;19904;-76
2023/08/27 13:02:47;;;;;;;;;;;20.60;99.90;;;;;;5092840;28;20445;-79
2023/08/27 13:05:13;;;;;;;;;;;20.80;99.90;;;;;;5095501;28;19970;-79
2023/08/27 13:07:39;;;;;;;;;;;21.10;99.90;;;;;;5093452;28;19908;-81
2023/08/27 13:10:05;;;;;;;;;;;21.00;99.90;;;;;;5094892;28;19957;-77
2023/08/27 13:12:30;;;;;;;;;;;20.90;99.90;;;;;;5090549;28;20443;-77
2023/08/27 13:14:56;;;;;;;;;;;21.00;99.90;;;;;;5094050;28;20011;-77
2023/08/27 13:17:22;;;;;;;;;;;21.00;99.90;;;;;;5088994;28;19908;-79
2023/08/27 13:19:47;;;;;;;;;;;20.80;99.90;;;;;;5092247;28;20000;-78
2023/08/27 13:22:13;;;;;;;;;;;20.80;99.90;;;;;;5094898;28;19919;-78
2023/08/27 13:24:38;;;;;;;;;;;20.80;99.90;;;;;;5093741;28;19934;-76
2023/08/27 13:27:04;;;;;;;;;;;21.00;99.90;;;;;;5092841;28;20308;-79
2023/08/27 13:29:30;;;;;;;;;;;21.30;99.90;;;;;;5095057;28;20376;-78
2023/08/27 13:31:58;;;;;;;;;;;21.60;99.90;;;;;;5093380;28;19947;-79
2023/08/27 13:34:25;;;;;;;;;;;21.80;99.90;;;;;;5094656;28;20331;-78
2023/08/27 13:36:50;;;;;;;;;;;21.60;99.90;;;;;;5093518;28;19912;-78
2023/08/27 13:39:16;;;;;;;;;;;21.60;99.90;;;;;;5094364;28;19904;-78
2023/08/27 13:41:41;;;;;;;;;;;21.50;99.90;;;;;;5093602;28;19911;-76
2023/08/27 13:44:07;;;;;;;;;;;21.40;99.90;;;;;;5091394;28;19908;-78
2023/08/27 13:46:33;;;;;;;;;;;21.20;99.90;;;;;;5091371;28;19904;-76
2023/08/27 13:48:59;;;;;;;;;;;21.00;99.90;;;;;;5094704;28;20653;-78
2023/08/27 13:51:24;;;;;;;;;;;20.90;99.90;;;;;;5088169;28;19948;-79
2023/08/27 13:53:50;;;;;;;;;;;21.00;99.90;;;;;;5093853;28;19937;-78
2023/08/27 13:56:15;;;;;;;;;;;21.20;99.90;;;;;;5092007;28;19930;-77
2023/08/27 13:58:41;;;;;;;;;;;21.30;99.90;;;;;;5093887;28;19995;-75
2023/08/27 14:01:07;;;;;;;;;;;21.00;99.90;;;;;;5092709;28;19958;-79
2023/08/27 14:03:32;;;;;;;;;;;20.80;99.90;;;;;;5094750;28;19904;-75
2023/08/27 14:05:58;;;;;;;;;;;20.70;99.90;;;;;;5089512;28;19989;-77
2023/08/27 14:08:24;;;;;;;;;;;20.60;99.90;;;;;;5093694;28;20019;-73
2023/08/27 14:10:50;;;;;;;;;;;20.50;99.90;;;;;;5093336;28;19923;-77
2023/08/27 14:13:15;;;;;;;;;;;20.50;99.90;;;;;;5093109;28;19907;-76